sensor_id;sensor_type;location;lat;lon;timestamp;pressure;altitude;pressure_sealevel;temperature;humidity
65666;BME280;52365;47.464;18.976;2022-09-24T00:00:05;99950.22;;;9.68;62.64
65666;BME280;52365;47.464;18.976;2022-09-24T00:00:43;99943.97;;;9.71;62.56
65666;BME280;52365;47.464;18.976;2022-09-24T00:01:23;99949.78;;;9.70;62.55
65666;BME280;52365;47.464;18.976;2022-09-24T00:02:00;99945.47;;;9.72;62.49
65666;BME280;52365;47.464;18.976;2022-09-24T00:02:36;99950.38;;;9.74;62.43
65666;BME280;52365;47.464;18.976;2022-09-24T00:03:12;99941.00;;;9.78;62.33
65666;BME280;52365;47.464;18.976;2022-09-24T00:03:51;99944.12;;;9.77;62.26
65666;BME280;52365;47.464;18.976;2022-09-24T00:04:27;99947.28;;;9.75;62.20
65666;BME280;52365;47.464;18.976;2022-09-24T00:05:03;99944.59;;;9.75;62.11
65666;BME280;52365;47.464;18.976;2022-09-24T00:05:40;99947.56;;;9.77;62.10
65666;BME280;52365;47.464;18.976;2022-09-24T00:06:16;99943.38;;;9.76;62.11
65666;BME280;52365;47.464;18.976;2022-09-24T00:06:55;99942.19;;;9.77;62.05
65666;BME280;52365;47.464;18.976;2022-09-24T00:07:31;99944.59;;;9.75;62.09
65666;BME280;52365;47.464;18.976;2022-09-24T00:08:07;99940.81;;;9.73;62.15
65666;BME280;52365;47.464;18.976;2022-09-24T00:08:45;99939.34;;;9.72;62.16
65666;BME280;52365;47.464;18.976;2022-09-24T00:09:21;99939.34;;;9.72;62.21
65666;BME280;52365;47.464;18.976;2022-09-24T00:09:58;99946.66;;;9.71;62.17
65666;BME280;52365;47.464;18.976;2022-09-24T00:10:38;99943.97;;;9.71;62.17
65666;BME280;52365;47.464;18.976;2022-09-24T00:11:15;99949.97;;;9.75;62.23
65666;BME280;52365;47.464;18.976;2022-09-24T00:11:53;99940.81;;;9.73;62.38
65666;BME280;52365;47.464;18.976;2022-09-24T00:12:29;99940.53;;;9.71;62.49
65666;BME280;52365;47.464;18.976;2022-09-24T00:13:07;99945.47;;;9.72;62.59
65666;BME280;52365;47.464;18.976;2022-09-24T00:13:43;99941.69;;;9.70;62.62
65666;BME280;52365;47.464;18.976;2022-09-24T00:14:19;99947.09;;;9.70;62.63
65666;BME280;52365;47.464;18.976;2022-09-24T00:14:55;99937.22;;;9.67;62.68
65666;BME280;52365;47.464;18.976;2022-09-24T00:15:35;99943.47;;;9.64;62.78
65666;BME280;52365;47.464;18.976;2022-09-24T00:16:14;99937.66;;;9.65;62.89
65666;BME280;52365;47.464;18.976;2022-09-24T00:16:50;99940.34;;;9.65;62.89
65666;BME280;52365;47.464;18.976;2022-09-24T00:17:26;99951.25;;;9.62;62.89
65666;BME280;52365;47.464;18.976;2022-09-24T00:18:03;99939.72;;;9.61;62.94
65666;BME280;52365;47.464;18.976;2022-09-24T00:18:41;99949.00;;;9.60;62.91
65666;BME280;52365;47.464;18.976;2022-09-24T00:19:17;99941.38;;;9.58;62.91
65666;BME280;52365;47.464;18.976;2022-09-24T00:19:53;99946.91;;;9.64;62.80
65666;BME280;52365;47.464;18.976;2022-09-24T00:20:30;99944.09;;;9.68;62.61
65666;BME280;52365;47.464;18.976;2022-09-24T00:21:21;99941.69;;;9.70;62.36
65666;BME280;52365;47.464;18.976;2022-09-24T00:21:58;99939.47;;;9.68;62.34
65666;BME280;52365;47.464;18.976;2022-09-24T00:22:34;99939.91;;;9.67;62.34
65666;BME280;52365;47.464;18.976;2022-09-24T00:23:11;99950.06;;;9.63;62.40
65666;BME280;52365;47.464;18.976;2022-09-24T00:23:49;99946.00;;;9.58;62.52
65666;BME280;52365;47.464;18.976;2022-09-24T00:24:25;99948.37;;;9.56;62.63
65666;BME280;52365;47.464;18.976;2022-09-24T00:25:20;99941.38;;;9.58;62.58
65666;BME280;52365;47.464;18.976;2022-09-24T00:26:15;99946.13;;;9.54;62.79
65666;BME280;52365;47.464;18.976;2022-09-24T00:27:09;99946.88;;;9.55;62.96
65666;BME280;52365;47.464;18.976;2022-09-24T00:27:45;99949.88;;;9.57;62.88
65666;BME280;52365;47.464;18.976;2022-09-24T00:28:21;99947.63;;;9.55;62.82
65666;BME280;52365;47.464;18.976;2022-09-24T00:28:58;99952.38;;;9.51;62.78
65666;BME280;52365;47.464;18.976;2022-09-24T00:29:34;99943.88;;;9.53;62.84
65666;BME280;52365;47.464;18.976;2022-09-24T00:30:10;99942.69;;;9.54;62.87
65666;BME280;52365;47.464;18.976;2022-09-24T00:30:46;99951.38;;;9.58;62.74
65666;BME280;52365;47.464;18.976;2022-09-24T00:31:24;99945.09;;;9.61;62.65
65666;BME280;52365;47.464;18.976;2022-09-24T00:32:01;99949.13;;;9.56;62.68
65666;BME280;52365;47.464;18.976;2022-09-24T00:32:37;99948.25;;;9.59;62.59
65666;BME280;52365;47.464;18.976;2022-09-24T00:33:13;99948.81;;;9.54;62.60
65666;BME280;52365;47.464;18.976;2022-09-24T00:33:49;99948.94;;;9.51;62.70
65666;BME280;52365;47.464;18.976;2022-09-24T00:34:27;99943.88;;;9.53;62.60
65666;BME280;52365;47.464;18.976;2022-09-24T00:35:03;99942.38;;;9.52;62.69
65666;BME280;52365;47.464;18.976;2022-09-24T00:35:39;99946.88;;;9.55;62.70
65666;BME280;52365;47.464;18.976;2022-09-24T00:36:17;99944.50;;;9.57;62.66
65666;BME280;52365;47.464;18.976;2022-09-24T00:36:54;99943.00;;;9.56;62.75
65666;BME280;52365;47.464;18.976;2022-09-24T00:37:30;99943.31;;;9.58;62.81
65666;BME280;52365;47.464;18.976;2022-09-24T00:38:06;99946.88;;;9.55;62.87
65666;BME280;52365;47.464;18.976;2022-09-24T00:38:42;99954.66;;;9.53;62.97
65666;BME280;52365;47.464;18.976;2022-09-24T00:39:18;99944.00;;;9.49;63.05
65666;BME280;52365;47.464;18.976;2022-09-24T00:39:54;99936.81;;;9.46;63.12
65666;BME280;52365;47.464;18.976;2022-09-24T00:40:33;99939.06;;;9.48;63.15
65666;BME280;52365;47.464;18.976;2022-09-24T00:41:09;99943.28;;;9.49;63.12
65666;BME280;52365;47.464;18.976;2022-09-24T00:41:45;99947.91;;;9.48;63.11
65666;BME280;52365;47.464;18.976;2022-09-24T00:42:23;99941.44;;;9.46;62.97
65666;BME280;52365;47.464;18.976;2022-09-24T00:43:00;99940.87;;;9.51;62.76
65666;BME280;52365;47.464;18.976;2022-09-24T00:43:36;99943.44;;;9.54;62.64
65666;BME280;52365;47.464;18.976;2022-09-24T00:45:18;99940.25;;;9.47;62.48
65666;BME280;52365;47.464;18.976;2022-09-24T00:46:02;99938.03;;;9.45;62.51
65666;BME280;52365;47.464;18.976;2022-09-24T00:46:42;99938.31;;;9.47;62.42
65666;BME280;52365;47.464;18.976;2022-09-24T00:48:02;99939.06;;;9.48;62.41
65666;BME280;52365;47.464;18.976;2022-09-24T00:48:38;99939.22;;;9.44;62.51
65666;BME280;52365;47.464;18.976;2022-09-24T00:49:17;99941.13;;;9.44;62.55
65666;BME280;52365;47.464;18.976;2022-09-24T00:50:01;99938.03;;;9.45;62.56
65666;BME280;52365;47.464;18.976;2022-09-24T00:50:37;99933.84;;;9.44;62.63
65666;BME280;52365;47.464;18.976;2022-09-24T00:51:17;99928.88;;;9.43;62.64
65666;BME280;52365;47.464;18.976;2022-09-24T00:51:53;99932.75;;;9.42;62.67
65666;BME280;52365;47.464;18.976;2022-09-24T00:52:30;99929.78;;;9.40;62.59
65666;BME280;52365;47.464;18.976;2022-09-24T00:53:13;99929.31;;;9.41;62.60
65666;BME280;52365;47.464;18.976;2022-09-24T00:53:53;99930.53;;;9.40;62.53
65666;BME280;52365;47.464;18.976;2022-09-24T00:54:32;99928.25;;;9.39;62.42
65666;BME280;52365;47.464;18.976;2022-09-24T00:55:08;99926.19;;;9.43;62.25
65666;BME280;52365;47.464;18.976;2022-09-24T00:55:47;99933.06;;;9.44;62.19
65666;BME280;52365;47.464;18.976;2022-09-24T00:56:25;99922.00;;;9.42;62.23
65666;BME280;52365;47.464;18.976;2022-09-24T00:57:03;99924.81;;;9.38;62.36
65666;BME280;52365;47.464;18.976;2022-09-24T00:57:40;99924.94;;;9.34;62.52
65666;BME280;52365;47.464;18.976;2022-09-24T00:58:17;99928.84;;;9.33;62.69
65666;BME280;52365;47.464;18.976;2022-09-24T00:58:55;99926.13;;;9.33;62.76
65666;BME280;52365;47.464;18.976;2022-09-24T00:59:31;99928.09;;;9.33;62.72
65666;BME280;52365;47.464;18.976;2022-09-24T01:00:08;99923.91;;;9.32;62.72
65666;BME280;52365;47.464;18.976;2022-09-24T01:00:45;99919.56;;;9.34;62.67
65666;BME280;52365;47.464;18.976;2022-09-24T01:01:23;99924.53;;;9.36;62.54
65666;BME280;52365;47.464;18.976;2022-09-24T01:02:00;99923.78;;;9.36;62.51
65666;BME280;52365;47.464;18.976;2022-09-24T01:02:40;99922.59;;;9.37;62.42
65666;BME280;52365;47.464;18.976;2022-09-24T01:03:22;99915.38;;;9.33;62.47
65666;BME280;52365;47.464;18.976;2022-09-24T01:03:59;99926.13;;;9.33;62.52
65666;BME280;52365;47.464;18.976;2022-09-24T01:04:36;99917.78;;;9.31;62.54
65666;BME280;52365;47.464;18.976;2022-09-24T01:05:12;99929.28;;;9.32;62.60
65666;BME280;52365;47.464;18.976;2022-09-24T01:05:49;99917.03;;;9.31;62.70
65666;BME280;52365;47.464;18.976;2022-09-24T01:06:26;99922.41;;;9.31;62.73
65666;BME280;52365;47.464;18.976;2022-09-24T01:07:02;99916.69;;;9.29;62.79
65666;BME280;52365;47.464;18.976;2022-09-24T01:07:38;99920.47;;;9.31;62.77
65666;BME280;52365;47.464;18.976;2022-09-24T01:08:16;99918.66;;;9.28;62.82
65666;BME280;52365;47.464;18.976;2022-09-24T01:08:56;99917.91;;;9.28;62.84
65666;BME280;52365;47.464;18.976;2022-09-24T01:09:33;99920.88;;;9.30;62.78
65666;BME280;52365;47.464;18.976;2022-09-24T01:10:09;99922.53;;;9.27;62.95
65666;BME280;52365;47.464;18.976;2022-09-24T01:11:44;99918.66;;;9.28;63.18
65666;BME280;52365;47.464;18.976;2022-09-24T01:12:39;99921.62;;;9.30;63.15
65666;BME280;52365;47.464;18.976;2022-09-24T01:13:35;99919.53;;;9.25;63.18
65666;BME280;52365;47.464;18.976;2022-09-24T01:14:28;99919.22;;;9.23;63.16
65666;BME280;52365;47.464;18.976;2022-09-24T01:15:19;99914.47;;;9.27;62.96
65666;BME280;52365;47.464;18.976;2022-09-24T01:16:07;99918.34;;;9.26;62.84
65666;BME280;52365;47.464;18.976;2022-09-24T01:17:48;99912.19;;;9.26;62.84
65666;BME280;52365;47.464;18.976;2022-09-24T01:18:48;99914.75;;;9.29;62.67
65666;BME280;52365;47.464;18.976;2022-09-24T01:20:46;99910.81;;;9.21;62.74
65666;BME280;52365;47.464;18.976;2022-09-24T01:27:16;99905.16;;;9.19;63.04
65666;BME280;52365;47.464;18.976;2022-09-24T01:30:34;99906.03;;;9.16;62.97
65666;BME280;52365;47.464;18.976;2022-09-24T01:31:17;99901.22;;;9.11;63.04
65666;BME280;52365;47.464;18.976;2022-09-24T01:32:05;99907.78;;;9.10;63.08
65666;BME280;52365;47.464;18.976;2022-09-24T01:32:50;99904.78;;;9.08;63.20
65666;BME280;52365;47.464;18.976;2022-09-24T01:33:29;99913.28;;;9.06;63.35
65666;BME280;52365;47.464;18.976;2022-09-24T01:34:08;99902.41;;;9.10;63.38
65666;BME280;52365;47.464;18.976;2022-09-24T01:35:57;99901.22;;;9.11;63.17
65666;BME280;52365;47.464;18.976;2022-09-24T01:36:37;99911.34;;;9.07;63.15
65666;BME280;52365;47.464;18.976;2022-09-24T01:37:17;99907.03;;;9.10;63.06
65666;BME280;52365;47.464;18.976;2022-09-24T01:38:03;99908.38;;;9.05;63.01
65666;BME280;52365;47.464;18.976;2022-09-24T01:38:43;99905.78;;;9.01;63.09
65666;BME280;52365;47.464;18.976;2022-09-24T01:39:21;99914.16;;;9.03;63.02
65666;BME280;52365;47.464;18.976;2022-09-24T01:39:58;99907.75;;;9.01;63.03
65666;BME280;52365;47.464;18.976;2022-09-24T01:40:37;99896.09;;;9.04;62.87
65666;BME280;52365;47.464;18.976;2022-09-24T01:41:16;99906.09;;;9.03;62.88
65666;BME280;52365;47.464;18.976;2022-09-24T01:41:52;99903.84;;;9.02;63.00
65666;BME280;52365;47.464;18.976;2022-09-24T01:42:30;99901.78;;;9.06;63.03
65666;BME280;52365;47.464;18.976;2022-09-24T01:43:08;99900.31;;;9.05;63.19
65666;BME280;52365;47.464;18.976;2022-09-24T01:43:45;99899.09;;;9.06;63.25
65666;BME280;52365;47.464;18.976;2022-09-24T01:44:23;99889.97;;;9.03;63.36
65666;BME280;52365;47.464;18.976;2022-09-24T01:45:01;99899.56;;;9.04;63.32
65666;BME280;52365;47.464;18.976;2022-09-24T01:45:38;99901.03;;;9.05;63.32
65666;BME280;52365;47.464;18.976;2022-09-24T01:46:15;99896.09;;;9.04;63.35
65666;BME280;52365;47.464;18.976;2022-09-24T01:46:54;99897.28;;;9.03;63.37
65666;BME280;52365;47.464;18.976;2022-09-24T01:47:34;99894.41;;;8.97;63.38
65666;BME280;52365;47.464;18.976;2022-09-24T01:48:14;99891.59;;;9.01;63.29
65666;BME280;52365;47.464;18.976;2022-09-24T01:48:55;99898.94;;;9.00;63.25
65666;BME280;52365;47.464;18.976;2022-09-24T01:49:33;99889.34;;;8.99;63.22
65666;BME280;52365;47.464;18.976;2022-09-24T01:50:12;99885.50;;;9.00;63.29
65666;BME280;52365;47.464;18.976;2022-09-24T01:51:33;99889.97;;;9.03;63.16
65666;BME280;52365;47.464;18.976;2022-09-24T01:52:15;99890.41;;;9.02;63.18
65666;BME280;52365;47.464;18.976;2022-09-24T01:53:02;99889.09;;;9.06;63.13
65666;BME280;52365;47.464;18.976;2022-09-24T01:54:02;99888.03;;;9.04;63.13
65666;BME280;52365;47.464;18.976;2022-09-24T01:54:41;99890.09;;;9.00;63.40
65666;BME280;52365;47.464;18.976;2022-09-24T01:55:28;99889.78;;;8.98;63.49
65666;BME280;52365;47.464;18.976;2022-09-24T01:57:47;99888.41;;;8.93;63.31
65666;BME280;52365;47.464;18.976;2022-09-24T01:58:31;99887.66;;;8.93;63.33
65666;BME280;52365;47.464;18.976;2022-09-24T01:59:23;99889.91;;;8.94;63.38
65666;BME280;52365;47.464;18.976;2022-09-24T02:00:19;99885.59;;;8.97;63.31
65666;BME280;52365;47.464;18.976;2022-09-24T02:01:02;99891.59;;;9.01;63.34
65666;BME280;52365;47.464;18.976;2022-09-24T02:02:54;99888.28;;;8.97;63.38
65666;BME280;52365;47.464;18.976;2022-09-24T02:03:35;99897.56;;;8.96;63.32
65666;BME280;52365;47.464;18.976;2022-09-24T02:04:19;99898.44;;;8.93;63.39
65666;BME280;52365;47.464;18.976;2022-09-24T02:05:43;99893.03;;;8.93;63.40
65666;BME280;52365;47.464;18.976;2022-09-24T02:07:04;99892.19;;;8.96;63.49
65666;BME280;52365;47.464;18.976;2022-09-24T02:08:39;99893.50;;;8.91;63.18
65666;BME280;52365;47.464;18.976;2022-09-24T02:09:32;99893.63;;;8.88;63.15
65666;BME280;52365;47.464;18.976;2022-09-24T02:10:16;99892.41;;;8.89;63.25
65666;BME280;52365;47.464;18.976;2022-09-24T02:10:56;99896.78;;;8.95;63.23
65666;BME280;52365;47.464;18.976;2022-09-24T02:11:36;99895.41;;;8.91;63.21
65666;BME280;52365;47.464;18.976;2022-09-24T02:12:53;99900.78;;;8.91;63.10
65666;BME280;52365;47.464;18.976;2022-09-24T02:13:38;99903.78;;;8.93;63.08
65666;BME280;52365;47.464;18.976;2022-09-24T02:14:17;99900.94;;;8.87;63.00
65666;BME280;52365;47.464;18.976;2022-09-24T02:15:09;99899.00;;;8.88;62.95
65666;BME280;52365;47.464;18.976;2022-09-24T02:15:49;99902.41;;;8.88;62.88
65666;BME280;52365;47.464;18.976;2022-09-24T02:16:31;99901.34;;;8.86;62.83
65666;BME280;52365;47.464;18.976;2022-09-24T02:17:09;99895.97;;;8.86;62.98
65666;BME280;52365;47.464;18.976;2022-09-24T02:17:47;99902.84;;;8.87;63.11
65666;BME280;52365;47.464;18.976;2022-09-24T02:18:29;99893.28;;;8.86;63.15
65666;BME280;52365;47.464;18.976;2022-09-24T02:19:12;99896.31;;;8.88;63.25
65666;BME280;52365;47.464;18.976;2022-09-24T02:19:49;99895.09;;;8.89;63.22
65666;BME280;52365;47.464;18.976;2022-09-24T02:20:26;99894.25;;;8.92;63.21
65666;BME280;52365;47.464;18.976;2022-09-24T02:21:08;99895.41;;;8.91;63.13
65666;BME280;52365;47.464;18.976;2022-09-24T02:21:45;99902.41;;;8.88;63.19
65666;BME280;52365;47.464;18.976;2022-09-24T02:22:22;99901.56;;;8.91;63.23
65666;BME280;52365;47.464;18.976;2022-09-24T02:22:59;99898.53;;;8.89;63.26
65666;BME280;52365;47.464;18.976;2022-09-24T02:23:39;99900.47;;;8.89;63.12
65666;BME280;52365;47.464;18.976;2022-09-24T02:24:23;99898.66;;;8.86;63.08
65666;BME280;52365;47.464;18.976;2022-09-24T02:25:04;99894.47;;;8.85;63.02
65666;BME280;52365;47.464;18.976;2022-09-24T02:25:49;99897.06;;;8.88;62.87
65666;BME280;52365;47.464;18.976;2022-09-24T02:26:27;99894.03;;;8.86;62.92
65666;BME280;52365;47.464;18.976;2022-09-24T02:27:03;99894.78;;;8.87;62.77
65666;BME280;52365;47.464;18.976;2022-09-24T02:27:40;99891.78;;;8.85;62.83
65666;BME280;52365;47.464;18.976;2022-09-24T02:28:17;99894.03;;;8.86;62.93
65666;BME280;52365;47.464;18.976;2022-09-24T02:28:53;99894.03;;;8.86;63.05
65666;BME280;52365;47.464;18.976;2022-09-24T02:29:29;99895.09;;;8.89;62.99
65666;BME280;52365;47.464;18.976;2022-09-24T02:30:06;99897.47;;;8.87;62.94
65666;BME280;52365;47.464;18.976;2022-09-24T02:30:49;99897.16;;;8.85;63.03
65666;BME280;52365;47.464;18.976;2022-09-24T02:31:29;99897.62;;;8.83;63.13
65666;BME280;52365;47.464;18.976;2022-09-24T02:32:09;99895.69;;;8.83;63.22
65666;BME280;52365;47.464;18.976;2022-09-24T02:32:46;99900.72;;;8.81;63.18
65666;BME280;52365;47.464;18.976;2022-09-24T02:33:25;99893.56;;;8.78;63.33
65666;BME280;52365;47.464;18.976;2022-09-24T02:34:25;99897.00;;;8.79;63.30
65666;BME280;52365;47.464;18.976;2022-09-24T02:35:05;99895.91;;;8.76;63.30
65666;BME280;52365;47.464;18.976;2022-09-24T02:35:42;99897.00;;;8.79;63.27
65666;BME280;52365;47.464;18.976;2022-09-24T02:36:19;99895.06;;;8.79;63.26
65666;BME280;52365;47.464;18.976;2022-09-24T02:36:59;99893.97;;;8.77;63.24
65666;BME280;52365;47.464;18.976;2022-09-24T02:37:42;99892.78;;;8.78;63.24
65666;BME280;52365;47.464;18.976;2022-09-24T02:38:19;99898.16;;;8.78;63.21
65666;BME280;52365;47.464;18.976;2022-09-24T02:38:55;99895.16;;;8.76;63.16
65666;BME280;52365;47.464;18.976;2022-09-24T02:39:31;99896.25;;;8.78;63.12
65666;BME280;52365;47.464;18.976;2022-09-24T02:40:10;99889.69;;;8.79;63.03
65666;BME280;52365;47.464;18.976;2022-09-24T02:40:47;99892.66;;;8.81;63.04
65666;BME280;52365;47.464;18.976;2022-09-24T02:41:23;99903.41;;;8.81;63.07
65666;BME280;52365;47.464;18.976;2022-09-24T02:42:02;99897.16;;;8.85;63.04
65666;BME280;52365;47.464;18.976;2022-09-24T02:42:41;99892.34;;;8.79;63.10
65666;BME280;52365;47.464;18.976;2022-09-24T02:43:18;99888.19;;;8.78;63.05
65666;BME280;52365;47.464;18.976;2022-09-24T02:43:54;99894.72;;;8.77;63.12
65666;BME280;52365;47.464;18.976;2022-09-24T02:44:34;99895.47;;;8.78;63.18
65666;BME280;52365;47.464;18.976;2022-09-24T02:45:11;99887.28;;;8.81;63.00
65666;BME280;52365;47.464;18.976;2022-09-24T02:45:47;99892.03;;;8.77;63.07
65666;BME280;52365;47.464;18.976;2022-09-24T02:46:23;99895.28;;;8.72;63.30
65666;BME280;52365;47.464;18.976;2022-09-24T02:46:59;99894.53;;;8.72;63.39
65666;BME280;52365;47.464;18.976;2022-09-24T02:47:35;99895.28;;;8.72;63.34
65666;BME280;52365;47.464;18.976;2022-09-24T02:48:12;99887.97;;;8.73;63.25
65666;BME280;52365;47.464;18.976;2022-09-24T02:48:48;99896.78;;;8.73;63.14
65666;BME280;52365;47.464;18.976;2022-09-24T02:49:24;99900.34;;;8.70;63.08
65666;BME280;52365;47.464;18.976;2022-09-24T02:50:00;99897.66;;;8.70;63.08
65666;BME280;52365;47.464;18.976;2022-09-24T02:50:37;99893.78;;;8.71;63.02
65666;BME280;52365;47.464;18.976;2022-09-24T02:51:13;99903.59;;;8.65;63.02
65666;BME280;52365;47.464;18.976;2022-09-24T02:51:49;99891.97;;;8.68;62.99
65666;BME280;52365;47.464;18.976;2022-09-24T02:52:25;99896.78;;;8.73;62.88
65666;BME280;52365;47.464;18.976;2022-09-24T02:53:02;99897.56;;;8.74;63.02
65666;BME280;52365;47.464;18.976;2022-09-24T02:53:38;99886.59;;;8.68;63.24
65666;BME280;52365;47.464;18.976;2022-09-24T02:54:14;99893.16;;;8.67;63.38
65666;BME280;52365;47.464;18.976;2022-09-24T02:54:50;99893.91;;;8.68;63.46
65666;BME280;52365;47.464;18.976;2022-09-24T02:55:26;99900.34;;;8.70;63.50
65666;BME280;52365;47.464;18.976;2022-09-24T02:56:04;99899.91;;;8.72;63.52
65666;BME280;52365;47.464;18.976;2022-09-24T02:56:40;99899.16;;;8.71;63.54
65666;BME280;52365;47.464;18.976;2022-09-24T02:57:17;99896.34;;;8.75;63.37
65666;BME280;52365;47.464;18.976;2022-09-24T02:57:53;99897.56;;;8.74;63.25
65666;BME280;52365;47.464;18.976;2022-09-24T02:58:30;99896.19;;;8.69;63.31
65666;BME280;52365;47.464;18.976;2022-09-24T02:59:07;99901.41;;;8.73;63.36
65666;BME280;52365;47.464;18.976;2022-09-24T02:59:44;99895.28;;;8.72;63.25
65666;BME280;52365;47.464;18.976;2022-09-24T03:00:20;99892.72;;;8.69;63.37
65666;BME280;52365;47.464;18.976;2022-09-24T03:00:56;99909.91;;;8.71;63.55
65666;BME280;52365;47.464;18.976;2022-09-24T03:01:33;99893.34;;;8.73;63.53
65666;BME280;52365;47.464;18.976;2022-09-24T03:02:09;99899.91;;;8.72;63.59
65666;BME280;52365;47.464;18.976;2022-09-24T03:02:46;99902.72;;;8.68;63.66
65666;BME280;52365;47.464;18.976;2022-09-24T03:03:23;99904.53;;;8.71;63.67
65666;BME280;52365;47.464;18.976;2022-09-24T03:04:00;99901.56;;;8.69;63.74
65666;BME280;52365;47.464;18.976;2022-09-24T03:04:36;99900.78;;;8.69;63.70
65666;BME280;52365;47.464;18.976;2022-09-24T03:05:13;99886.19;;;8.70;63.62
65666;BME280;52365;47.464;18.976;2022-09-24T03:05:52;99891.56;;;8.70;63.49
65666;BME280;52365;47.464;18.976;2022-09-24T03:06:29;99899.47;;;8.73;63.45
65666;BME280;52365;47.464;18.976;2022-09-24T03:07:05;99889.50;;;8.74;63.37
65666;BME280;52365;47.464;18.976;2022-09-24T03:07:41;99893.50;;;8.69;63.35
65666;BME280;52365;47.464;18.976;2022-09-24T03:08:19;99891.66;;;8.66;63.49
65666;BME280;52365;47.464;18.976;2022-09-24T03:08:56;99886.41;;;8.63;63.67
65666;BME280;52365;47.464;18.976;2022-09-24T03:09:32;99889.84;;;8.63;63.73
65666;BME280;52365;47.464;18.976;2022-09-24T03:10:08;99884.81;;;8.65;63.72
65666;BME280;52365;47.464;18.976;2022-09-24T03:10:45;99891.56;;;8.70;63.60
65666;BME280;52365;47.464;18.976;2022-09-24T03:11:22;99884.03;;;8.65;63.57
65666;BME280;52365;47.464;18.976;2022-09-24T03:11:58;99898.22;;;8.65;63.70
65666;BME280;52365;47.464;18.976;2022-09-24T03:12:35;99896.19;;;8.69;63.59
65666;BME280;52365;47.464;18.976;2022-09-24T03:13:12;99887.78;;;8.67;63.56
65666;BME280;52365;47.464;18.976;2022-09-24T03:13:49;99889.72;;;8.67;63.49
65666;BME280;52365;47.464;18.976;2022-09-24T03:14:26;99890.91;;;8.66;63.57
65666;BME280;52365;47.464;18.976;2022-09-24T03:15:02;99885.97;;;8.64;63.46
65666;BME280;52365;47.464;18.976;2022-09-24T03:15:39;99888.97;;;8.66;63.39
65666;BME280;52365;47.464;18.976;2022-09-24T03:16:16;99879.44;;;8.65;63.39
65666;BME280;52365;47.464;18.976;2022-09-24T03:16:52;99878.25;;;8.66;63.29
65666;BME280;52365;47.464;18.976;2022-09-24T03:17:28;99879.72;;;8.67;63.29
65666;BME280;52365;47.464;18.976;2022-09-24T03:18:04;99879.28;;;8.69;63.28
65666;BME280;52365;47.464;18.976;2022-09-24T03:18:40;99880.19;;;8.66;63.24
65666;BME280;52365;47.464;18.976;2022-09-24T03:19:16;99886.72;;;8.65;63.23
65666;BME280;52365;47.464;18.976;2022-09-24T03:19:52;99880.75;;;8.61;63.36
65666;BME280;52365;47.464;18.976;2022-09-24T03:20:29;99877.44;;;8.56;63.45
65666;BME280;52365;47.464;18.976;2022-09-24T03:21:08;99879.66;;;8.58;63.47
65666;BME280;52365;47.464;18.976;2022-09-24T03:21:44;99882.66;;;8.60;63.42
65666;BME280;52365;47.464;18.976;2022-09-24T03:22:20;99878.16;;;8.57;63.46
65666;BME280;52365;47.464;18.976;2022-09-24T03:22:59;99874.00;;;8.56;63.45
65666;BME280;52365;47.464;18.976;2022-09-24T03:23:36;99875.59;;;8.53;63.45
65666;BME280;52365;47.464;18.976;2022-09-24T03:24:12;99877.97;;;8.51;63.44
65666;BME280;52365;47.464;18.976;2022-09-24T03:24:48;99877.53;;;8.53;63.54
65666;BME280;52365;47.464;18.976;2022-09-24T03:25:24;99869.78;;;8.55;63.51
65666;BME280;52365;47.464;18.976;2022-09-24T03:26:01;99862.91;;;8.54;63.41
65666;BME280;52365;47.464;18.976;2022-09-24T03:26:37;99868.28;;;8.54;63.44
65666;BME280;52365;47.464;18.976;2022-09-24T03:27:13;99862.91;;;8.54;63.50
65666;BME280;52365;47.464;18.976;2022-09-24T03:27:49;99869.47;;;8.53;63.66
65666;BME280;52365;47.464;18.976;2022-09-24T03:28:26;99863.53;;;8.58;63.59
65666;BME280;52365;47.464;18.976;2022-09-24T03:29:02;99865.03;;;8.59;63.62
65666;BME280;52365;47.464;18.976;2022-09-24T03:29:39;99864.00;;;8.56;63.63
65666;BME280;52365;47.464;18.976;2022-09-24T03:30:33;99860.69;;;8.52;63.82
65666;BME280;52365;47.464;18.976;2022-09-24T03:31:28;99870.97;;;8.54;63.75
65666;BME280;52365;47.464;18.976;2022-09-24T03:32:04;99867.53;;;8.53;63.73
65666;BME280;52365;47.464;18.976;2022-09-24T03:32:40;99870.69;;;8.52;63.81
65666;BME280;52365;47.464;18.976;2022-09-24T03:33:16;99867.09;;;8.55;63.74
65666;BME280;52365;47.464;18.976;2022-09-24T03:33:52;99872.16;;;8.53;63.82
65666;BME280;52365;47.464;18.976;2022-09-24T03:34:28;99872.16;;;8.53;63.88
65666;BME280;52365;47.464;18.976;2022-09-24T03:35:04;99871.41;;;8.52;63.76
65666;BME280;52365;47.464;18.976;2022-09-24T03:35:40;99873.78;;;8.50;63.70
65666;BME280;52365;47.464;18.976;2022-09-24T03:36:20;99872.16;;;8.53;63.61
65666;BME280;52365;47.464;18.976;2022-09-24T03:36:57;99872.16;;;8.53;63.56
65666;BME280;52365;47.464;18.976;2022-09-24T03:37:35;99874.97;;;8.49;63.66
65666;BME280;52365;47.464;18.976;2022-09-24T03:38:11;99872.72;;;8.48;63.71
65666;BME280;52365;47.464;18.976;2022-09-24T03:38:49;99873.78;;;8.50;63.58
65666;BME280;52365;47.464;18.976;2022-09-24T03:39:26;99869.03;;;8.54;63.47
65666;BME280;52365;47.464;18.976;2022-09-24T03:40:03;99873.66;;;8.54;63.42
65666;BME280;52365;47.464;18.976;2022-09-24T03:40:41;99883.22;;;8.55;63.45
65666;BME280;52365;47.464;18.976;2022-09-24T03:41:17;99881.28;;;8.55;63.58
65666;BME280;52365;47.464;18.976;2022-09-24T03:41:53;99886.78;;;8.52;63.78
65666;BME280;52365;47.464;18.976;2022-09-24T03:42:29;99884.84;;;8.52;63.82
65666;BME280;52365;47.464;18.976;2022-09-24T03:43:05;99879.37;;;8.56;63.73
65666;BME280;52365;47.464;18.976;2022-09-24T03:43:42;99877.53;;;8.53;63.61
65666;BME280;52365;47.464;18.976;2022-09-24T03:44:18;99871.84;;;8.51;63.58
65666;BME280;52365;47.464;18.976;2022-09-24T03:44:54;99876.91;;;8.49;63.71
65666;BME280;52365;47.464;18.976;2022-09-24T03:45:30;99872.28;;;8.49;63.73
65666;BME280;52365;47.464;18.976;2022-09-24T03:46:07;99875.41;;;8.48;63.65